Time;durP1;ratioP1;P1;durP2;ratioP2;P2;SDS_P1;SDS_P2;PMS_P1;PMS_P2;Temp;Humidity;BMP_temperature;BMP_pressure;BME280_temperature;BME280_humidity;BME280_pressure;Samples;Min_cycle;Max_cycle;Signal;HPM_P1;HPM_P2
2022/10/16 00:00:06;;;;;;;67.43;20.83;;;;;;;;;;6332261;22;20026;-60
2022/10/16 00:02:33;;;;;;;56.10;18.08;;;;;;;;;;6330653;22;20099;-61
2022/10/16 00:05:07;;;;;;;50.40;18.08;;;;;;;;;;6332154;22;20052;-61
2022/10/16 00:07:34;;;;;;;55.05;19.45;;;;;;;;;;6332242;22;20015;-61
2022/10/16 00:10:08;;;;;;;60.95;20.63;;;;;;;;;;6331147;22;20023;-61
2022/10/16 00:12:35;;;;;;;68.20;19.70;;;;;;;;;;6331754;22;20468;-65
2022/10/16 00:15:02;;;;;;;39.45;15.95;;;;;;;;;;6332004;22;20015;-57
2022/10/16 00:17:42;;;;;;;48.45;16.20;;;;;;;;;;6304151;22;20027;-51
2022/10/16 00:20:09;;;;;;;42.30;15.95;;;;;;;;;;6331333;22;20033;-49
2022/10/16 00:22:44;;;;;;;48.33;15.50;;;;;;;;;;6332095;22;20022;-50
2022/10/16 00:25:11;;;;;;;51.92;16.23;;;;;;;;;;6331279;22;20019;-46
2022/10/16 00:27:38;;;;;;;57.92;15.50;;;;;;;;;;6330829;22;20476;-48
2022/10/16 00:30:12;;;;;;;62.75;15.77;;;;;;;;;;6331801;22;20025;-51
2022/10/16 00:32:39;;;;;;;43.22;12.85;;;;;;;;;;6331724;22;20040;-61
2022/10/16 00:35:13;;;;;;;28.27;11.57;;;;;;;;;;6332426;22;20377;-60
2022/10/16 00:37:40;;;;;;;34.92;11.98;;;;;;;;;;6331576;22;20063;-62
2022/10/16 00:40:07;;;;;;;42.95;13.70;;;;;;;;;;6330827;22;20101;-63
2022/10/16 00:42:41;;;;;;;50.97;14.18;;;;;;;;;;6331488;22;20460;-63
2022/10/16 00:45:09;;;;;;;45.25;13.45;;;;;;;;;;6332005;22;20029;-62
2022/10/16 00:47:49;;;;;;;49.47;14.40;;;;;;;;;;6329580;22;20716;-62
2022/10/16 00:50:32;;;;;;;32.78;13.55;;;;;;;;;;6331202;22;20098;-62
2022/10/16 00:53:06;;;;;;;42.03;15.60;;;;;;;;;;6331971;22;20030;-59
2022/10/16 00:55:33;;;;;;;48.03;15.15;;;;;;;;;;6331153;22;20377;-62
2022/10/16 00:58:08;;;;;;;64.15;18.05;;;;;;;;;;6331757;22;20022;-62
2022/10/16 01:00:36;;;;;;;51.40;17.15;;;;;;;;;;6332081;22;20700;-62
2022/10/16 01:03:03;;;;;;;65.18;17.15;;;;;;;;;;6330829;22;20033;-62
2022/10/16 01:05:45;;;;;;;53.85;17.45;;;;;;;;;;6331741;22;20026;-62
2022/10/16 01:08:21;;;;;;;78.78;21.13;;;;;;;;;;6331331;22;20097;-62
2022/10/16 01:11:09;;;;;;;91.93;21.27;;;;;;;;;;6331505;22;20018;-62
2022/10/16 01:13:39;;;;;;;79.15;19.85;;;;;;;;;;6332230;22;20434;-51
2022/10/16 01:16:39;;;;;;;66.97;19.40;;;;;;;;;;6305572;22;20021;-51
2022/10/16 01:19:26;;;;;;;61.05;19.05;;;;;;;;;;6330354;22;20019;-48
2022/10/16 01:22:01;;;;;;;51.88;16.77;;;;;;;;;;6331824;22;20014;-51
2022/10/16 01:24:41;;;;;;;59.05;17.02;;;;;;;;;;6330642;22;20506;-50
2022/10/16 01:27:30;;;;;;;52.58;16.70;;;;;;;;;;6331237;22;20435;-46
2022/10/16 01:30:02;;;;;;;59.03;18.48;;;;;;;;;;6330788;22;20023;-61
2022/10/16 01:32:36;;;;;;;55.30;16.25;;;;;;;;;;6331347;22;20029;-61
2022/10/16 01:35:12;;;;;;;61.42;18.27;;;;;;;;;;6328122;22;20019;-61
2022/10/16 01:37:50;;;;;;;57.88;17.20;;;;;;;;;;6330645;22;20015;-61
2022/10/16 01:40:18;;;;;;;56.45;16.35;;;;;;;;;;6331311;22;20531;-61
2022/10/16 01:42:48;;;;;;;45.60;15.32;;;;;;;;;;6331869;22;20102;-61
2022/10/16 01:45:23;;;;;;;55.73;17.60;;;;;;;;;;6330185;22;20102;-61
2022/10/16 01:47:57;;;;;;;54.72;16.27;;;;;;;;;;6331831;22;20098;-61
2022/10/16 01:50:32;;;;;;;41.33;15.63;;;;;;;;;;6332270;22;20030;-50
2022/10/16 01:53:07;;;;;;;59.85;16.73;;;;;;;;;;6304825;22;20023;-62
2022/10/16 01:55:36;;;;;;;64.05;16.83;;;;;;;;;;6333941;22;20090;-62
2022/10/16 01:58:10;;;;;;;40.83;13.80;;;;;;;;;;6308044;22;20015;-62
2022/10/16 02:00:40;;;;;;;65.32;17.83;;;;;;;;;;6331460;22;20563;-63
2022/10/16 02:03:15;;;;;;;43.85;13.65;;;;;;;;;;6332814;22;20460;-62
2022/10/16 02:06:01;;;;;;;65.35;16.85;;;;;;;;;;6333888;22;20029;-62
2022/10/16 02:08:35;;;;;;;49.20;13.95;;;;;;;;;;6331767;22;20097;-59
2022/10/16 02:11:03;;;;;;;67.38;17.60;;;;;;;;;;6333721;22;20456;-52
2022/10/16 02:13:33;;;;;;;52.78;15.65;;;;;;;;;;6332963;22;20539;-62
2022/10/16 02:16:14;;;;;;;72.20;16.75;;;;;;;;;;6330461;22;20023;-62
2022/10/16 02:18:42;;;;;;;59.30;16.83;;;;;;;;;;6331410;22;20430;-62
2022/10/16 02:21:17;;;;;;;55.05;14.40;;;;;;;;;;6333589;22;20015;-62
2022/10/16 02:24:04;;;;;;;54.45;15.00;;;;;;;;;;6330397;22;20363;-62
2022/10/16 02:26:43;;;;;;;53.50;14.68;;;;;;;;;;6316746;22;20023;-62
2022/10/16 02:29:14;;;;;;;77.05;16.75;;;;;;;;;;6329847;22;20109;-51
2022/10/16 02:31:51;;;;;;;49.15;15.45;;;;;;;;;;6333331;22;20019;-61
2022/10/16 02:34:19;;;;;;;65.63;18.13;;;;;;;;;;6334192;22;20019;-60
2022/10/16 02:36:47;;;;;;;76.30;18.98;;;;;;;;;;6331133;22;20015;-61
2022/10/16 02:39:22;;;;;;;60.17;17.63;;;;;;;;;;6333871;22;20027;-61
2022/10/16 02:41:55;;;;;;;61.50;15.57;;;;;;;;;;6304848;22;20021;-61
2022/10/16 02:44:30;;;;;;;60.63;16.17;;;;;;;;;;6333196;22;20027;-61
2022/10/16 02:47:04;;;;;;;64.32;17.05;;;;;;;;;;6332921;22;20040;-48
2022/10/16 02:49:42;;;;;;;60.58;16.83;;;;;;;;;;6332519;22;20022;-61
2022/10/16 02:52:10;;;;;;;72.10;18.33;;;;;;;;;;6332760;22;20045;-61
2022/10/16 02:54:37;;;;;;;61.08;17.60;;;;;;;;;;6331684;22;20023;-61
2022/10/16 02:57:11;;;;;;;79.45;17.65;;;;;;;;;;6333084;22;20023;-60
2022/10/16 02:59:45;;;;;;;49.65;14.73;;;;;;;;;;6332083;22;20481;-61
2022/10/16 03:02:19;;;;;;;53.47;17.00;;;;;;;;;;6331578;22;20514;-60
2022/10/16 03:04:46;;;;;;;68.72;18.33;;;;;;;;;;6333148;22;20102;-61
2022/10/16 03:07:20;;;;;;;69.28;17.00;;;;;;;;;;6332495;22;20097;-59
2022/10/16 03:09:47;;;;;;;70.35;19.05;;;;;;;;;;6331685;22;20019;-58
2022/10/16 03:12:21;;;;;;;66.57;17.17;;;;;;;;;;6332272;22;20023;-60
2022/10/16 03:14:48;;;;;;;61.05;15.75;;;;;;;;;;6332425;22;20026;-59
2022/10/16 03:17:16;;;;;;;60.50;16.38;;;;;;;;;;6332086;22;20025;-59
2022/10/16 03:19:50;;;;;;;62.00;16.55;;;;;;;;;;6332564;22;20022;-59
2022/10/16 03:22:17;;;;;;;68.95;17.10;;;;;;;;;;6330345;22;20065;-59
2022/10/16 03:24:44;;;;;;;63.80;16.23;;;;;;;;;;6329887;22;20023;-59
2022/10/16 03:27:19;;;;;;;53.80;15.57;;;;;;;;;;6333178;22;20019;-61
2022/10/16 03:29:53;;;;;;;64.10;15.98;;;;;;;;;;6331434;22;20491;-51
2022/10/16 03:32:28;;;;;;;71.50;17.42;;;;;;;;;;6332412;22;20049;-51
2022/10/16 03:35:07;;;;;;;76.35;16.05;;;;;;;;;;6333161;22;20045;-50
2022/10/16 03:37:34;;;;;;;75.53;15.43;;;;;;;;;;6331590;22;20025;-51
2022/10/16 03:40:01;;;;;;;64.40;15.38;;;;;;;;;;6331439;22;20423;-51
2022/10/16 03:42:35;;;;;;;60.58;15.38;;;;;;;;;;6332665;22;20483;-52
2022/10/16 03:45:02;;;;;;;70.57;16.75;;;;;;;;;;6332730;22;20030;-60
2022/10/16 03:47:36;;;;;;;58.70;14.05;;;;;;;;;;6330969;22;20708;-58
2022/10/16 03:50:03;;;;;;;70.25;14.05;;;;;;;;;;6332483;22;20021;-56
2022/10/16 03:52:31;;;;;;;63.08;14.38;;;;;;;;;;6330880;22;20022;-58
2022/10/16 03:55:06;;;;;;;67.95;15.18;;;;;;;;;;6331768;22;20408;-59
2022/10/16 03:57:33;;;;;;;56.03;13.43;;;;;;;;;;6331129;22;20037;-57
2022/10/16 04:00:03;;;;;;;66.00;13.75;;;;;;;;;;6332284;22;20033;-59
2022/10/16 04:02:38;;;;;;;51.08;12.43;;;;;;;;;;6331799;22;20022;-62
2022/10/16 04:05:08;;;;;;;62.80;12.73;;;;;;;;;;6305648;22;20023;-61
2022/10/16 04:07:42;;;;;;;56.30;13.00;;;;;;;;;;6331410;22;20559;-61
2022/10/16 04:10:09;;;;;;;60.38;13.48;;;;;;;;;;6331937;22;20925;-61
2022/10/16 04:12:36;;;;;;;61.08;13.95;;;;;;;;;;6332595;22;20025;-61
2022/10/16 04:15:11;;;;;;;45.40;11.60;;;;;;;;;;6332573;22;20029;-61
2022/10/16 04:17:44;;;;;;;64.25;14.13;;;;;;;;;;6330737;22;20073;-61
2022/10/16 04:20:25;;;;;;;72.65;13.85;;;;;;;;;;6331607;22;20058;-61
2022/10/16 04:22:53;;;;;;;50.50;12.38;;;;;;;;;;6333337;22;20030;-52
2022/10/16 04:25:27;;;;;;;60.08;12.70;;;;;;;;;;6330986;22;20033;-61
2022/10/16 04:27:54;;;;;;;66.00;13.38;;;;;;;;;;6332854;22;20049;-61
2022/10/16 04:30:22;;;;;;;50.80;12.32;;;;;;;;;;6332402;22;20632;-61
2022/10/16 04:32:56;;;;;;;60.53;12.88;;;;;;;;;;6331377;22;20355;-61
2022/10/16 04:35:23;;;;;;;67.78;13.05;;;;;;;;;;6331901;22;20079;-61
2022/10/16 04:37:59;;;;;;;73.00;14.40;;;;;;;;;;6331460;22;20090;-62
2022/10/16 04:40:27;;;;;;;55.67;13.13;;;;;;;;;;6332252;22;20359;-61
2022/10/16 04:43:09;;;;;;;50.25;11.27;;;;;;;;;;6330697;22;20456;-58
2022/10/16 04:45:36;;;;;;;79.85;13.40;;;;;;;;;;6331963;22;20407;-61
2022/10/16 04:48:11;;;;;;;57.83;10.52;;;;;;;;;;6332272;22;20023;-61
2022/10/16 04:50:39;;;;;;;58.92;10.93;;;;;;;;;;6332673;22;20015;-62
2022/10/16 04:53:07;;;;;;;48.42;11.15;;;;;;;;;;6333110;22;20110;-61
2022/10/16 04:55:41;;;;;;;52.25;11.98;;;;;;;;;;6331676;22;20094;-61
2022/10/16 04:58:09;;;;;;;46.20;10.88;;;;;;;;;;6330049;22;20019;-61
2022/10/16 05:00:44;;;;;;;64.28;10.82;;;;;;;;;;6330899;22;20031;-58
2022/10/16 05:03:11;;;;;;;45.85;10.38;;;;;;;;;;6331000;22;20015;-50
2022/10/16 05:05:42;;;;;;;59.58;9.48;;;;;;;;;;6330641;22;20196;-51
2022/10/16 05:08:16;;;;;;;66.97;12.00;;;;;;;;;;6332247;22;20486;-49
2022/10/16 05:10:44;;;;;;;65.07;12.20;;;;;;;;;;6331855;22;20029;-50
2022/10/16 05:13:18;;;;;;;44.15;10.93;;;;;;;;;;6332632;22;20019;-51
2022/10/16 05:15:48;;;;;;;53.00;11.40;;;;;;;;;;6331552;22;20332;-49
2022/10/16 05:18:28;;;;;;;71.78;13.80;;;;;;;;;;6331478;22;20117;-58
2022/10/16 05:20:56;;;;;;;87.25;14.45;;;;;;;;;;6332154;22;20053;-61
2022/10/16 05:23:30;;;;;;;59.25;11.00;;;;;;;;;;6331056;22;20045;-48
2022/10/16 05:25:58;;;;;;;;;;;;;;;;;;6332657;22;20033;-49
2022/10/16 05:28:29;;;;;;;82.15;14.45;;;;;;;;;;6331859;22;19914;-47
2022/10/16 05:31:07;;;;;;;77.30;13.93;;;;;;;;;;6334036;22;20057;-47
2022/10/16 05:33:35;;;;;;;;;;;;;;;;;;6333894;22;20061;-46
2022/10/16 05:36:09;;;;;;;66.85;12.68;;;;;;;;;;6307975;22;19919;-48
2022/10/16 05:38:37;;;;;;;95.70;15.45;;;;;;;;;;6333918;22;20019;-59
2022/10/16 05:41:04;;;;;;;;;;;;;;;;;;6333344;22;20030;-59
2022/10/16 05:43:38;;;;;;;43.33;10.13;;;;;;;;;;6333772;22;19914;-58
2022/10/16 05:46:06;;;;;;;77.68;13.52;;;;;;;;;;6333780;22;20110;-59
2022/10/16 05:48:40;;;;;;;71.03;14.13;;;;;;;;;;6333483;22;20733;-59
2022/10/16 05:51:09;;;;;;;66.32;14.38;;;;;;;;;;6333630;22;20094;-59
2022/10/16 05:53:37;;;;;;;64.60;13.65;;;;;;;;;;6332684;22;20094;-59
2022/10/16 05:56:16;;;;;;;64.70;13.73;;;;;;;;;;6334215;22;20025;-58
2022/10/16 05:58:44;;;;;;;;;;;;;;;;;;6333632;22;20023;-56
2022/10/16 06:01:19;;;;;;;51.17;11.05;;;;;;;;;;6333468;22;19921;-61
2022/10/16 06:03:46;;;;;;;40.35;11.48;;;;;;;;;;6332676;22;20022;-61
2022/10/16 06:06:22;;;;;;;54.58;13.05;;;;;;;;;;6333300;22;20478;-61
2022/10/16 06:08:50;;;;;;;49.05;12.13;;;;;;;;;;6333079;22;20033;-61
2022/10/16 06:11:18;;;;;;;45.00;10.95;;;;;;;;;;6333875;22;20023;-60
2022/10/16 06:13:52;;;;;;;56.67;13.75;;;;;;;;;;6333659;22;20021;-61
2022/10/16 06:16:19;;;;;;;54.03;13.35;;;;;;;;;;6333353;22;20019;-49
2022/10/16 06:19:01;;;;;;;45.25;12.35;;;;;;;;;;6331038;22;20027;-61
2022/10/16 06:21:29;;;;;;;63.00;13.27;;;;;;;;;;6333053;22;20015;-61
2022/10/16 06:24:03;;;;;;;42.13;11.90;;;;;;;;;;6331822;22;20019;-60
2022/10/16 06:26:38;;;;;;;55.85;13.15;;;;;;;;;;6331529;22;20019;-61
2022/10/16 06:29:05;;;;;;;46.40;12.18;;;;;;;;;;6332627;22;20029;-61
2022/10/16 06:31:33;;;;;;;39.72;12.85;;;;;;;;;;6331756;22;20808;-62
2022/10/16 06:34:10;;;;;;;59.92;12.20;;;;;;;;;;6332795;22;20033;-61
2022/10/16 06:36:38;;;;;;;48.60;11.73;;;;;;;;;;6331711;22;20018;-61
2022/10/16 06:39:12;;;;;;;49.60;11.95;;;;;;;;;;6331463;22;20363;-61
2022/10/16 06:41:39;;;;;;;52.13;11.70;;;;;;;;;;6330776;22;20019;-61
2022/10/16 06:44:07;;;;;;;55.78;12.80;;;;;;;;;;6334141;22;20025;-61
2022/10/16 06:46:41;;;;;;;54.15;13.50;;;;;;;;;;6334007;22;20026;-61
2022/10/16 06:49:08;;;;;;;56.15;12.80;;;;;;;;;;6332346;22;20086;-61
2022/10/16 06:51:36;;;;;;;57.45;15.15;;;;;;;;;;6333479;22;20029;-61
2022/10/16 06:54:10;;;;;;;51.75;13.18;;;;;;;;;;6333820;22;20014;-61
2022/10/16 06:56:37;;;;;;;55.00;13.40;;;;;;;;;;6333445;22;20097;-51
2022/10/16 06:59:11;;;;;;;45.33;12.98;;;;;;;;;;6335168;22;20065;-61
2022/10/16 07:01:38;;;;;;;41.65;12.20;;;;;;;;;;6331372;22;20022;-61
2022/10/16 07:04:05;;;;;;;48.17;12.48;;;;;;;;;;6333111;22;20029;-61
2022/10/16 07:06:39;;;;;;;68.82;15.05;;;;;;;;;;6333893;22;20471;-61
2022/10/16 07:09:07;;;;;;;51.92;14.18;;;;;;;;;;6332566;22;20033;-61
2022/10/16 07:11:41;;;;;;;53.85;14.10;;;;;;;;;;6333358;22;20093;-61
2022/10/16 07:14:15;;;;;;;53.00;14.25;;;;;;;;;;6333689;22;20513;-59
2022/10/16 07:16:49;;;;;;;53.00;15.50;;;;;;;;;;6332241;22;20032;-62
2022/10/16 07:19:29;;;;;;;59.58;16.27;;;;;;;;;;6331344;22;20090;-62
2022/10/16 07:22:00;;;;;;;62.72;16.42;;;;;;;;;;6332254;22;20037;-62
2022/10/16 07:24:33;;;;;;;55.20;16.02;;;;;;;;;;6330993;22;20464;-61
2022/10/16 07:27:01;;;;;;;52.45;16.90;;;;;;;;;;6331094;22;20015;-62
2022/10/16 07:29:28;;;;;;;58.20;19.13;;;;;;;;;;6333735;22;20552;-63
2022/10/16 07:32:02;;;;;;;62.05;17.88;;;;;;;;;;6330609;22;20064;-47
2022/10/16 07:34:29;;;;;;;;;;;;;;;;;;6332064;22;20351;-59
2022/10/16 07:37:03;;;;;;;60.83;19.48;;;;;;;;;;6331715;22;19941;-59
2022/10/16 07:39:30;;;;;;;56.90;17.35;;;;;;;;;;6332592;22;20015;-60
2022/10/16 07:41:58;;;;;;;51.90;16.48;;;;;;;;;;6332117;22;20430;-59
2022/10/16 07:44:32;;;;;;;54.80;16.45;;;;;;;;;;6332158;22;20027;-59
2022/10/16 07:46:59;;;;;;;57.05;17.83;;;;;;;;;;6330766;22;20046;-59
2022/10/16 07:49:26;;;;;;;56.88;14.43;;;;;;;;;;6332881;22;20442;-59
2022/10/16 07:52:00;;;;;;;45.60;15.50;;;;;;;;;;6332529;22;20023;-51
2022/10/16 07:54:27;;;;;;;43.50;14.93;;;;;;;;;;6331969;22;20015;-59
2022/10/16 07:57:01;;;;;;;45.33;13.68;;;;;;;;;;6331330;22;20019;-59
2022/10/16 07:59:28;;;;;;;37.75;15.20;;;;;;;;;;6331933;22;20019;-59
2022/10/16 08:01:55;;;;;;;49.63;13.90;;;;;;;;;;6332803;22;20018;-59
2022/10/16 08:04:29;;;;;;;48.00;14.68;;;;;;;;;;6330957;22;20022;-59
2022/10/16 08:06:56;;;;;;;42.22;13.95;;;;;;;;;;6332904;22;20025;-59
2022/10/16 08:09:23;;;;;;;61.65;13.73;;;;;;;;;;6331630;22;20015;-59
2022/10/16 08:11:57;;;;;;;47.65;14.25;;;;;;;;;;6332139;22;20555;-51
2022/10/16 08:14:28;;;;;;;46.15;11.77;;;;;;;;;;6332415;22;20014;-50
2022/10/16 08:17:25;;;;;;;45.33;11.85;;;;;;;;;;6331969;22;20050;-48
2022/10/16 08:20:02;;;;;;;37.60;10.65;;;;;;;;;;6333072;22;20026;-50
2022/10/16 08:22:39;;;;;;;36.20;8.95;;;;;;;;;;6330443;22;20023;-51
2022/10/16 08:25:06;;;;;;;28.90;9.60;;;;;;;;;;6304574;22;20491;-47
2022/10/16 08:27:33;;;;;;;21.55;9.40;;;;;;;;;;6330705;22;20022;-49
2022/10/16 08:30:08;;;;;;;24.52;9.00;;;;;;;;;;6332318;22;20029;-56
2022/10/16 08:32:35;;;;;;;;;;;;;;;;;;6331358;22;20027;-51
2022/10/16 08:35:12;;;;;;;27.85;7.55;;;;;;;;;;6328910;22;19989;-50
2022/10/16 08:37:40;;;;;;;30.85;6.80;;;;;;;;;;6329508;22;20025;-53
2022/10/16 08:40:07;;;;;;;;;;;;;;;;;;6333001;22;20456;-52
2022/10/16 08:42:48;;;;;;;22.67;5.63;;;;;;;;;;6330075;22;20389;-53
2022/10/16 08:45:19;;;;;;;25.15;5.53;;;;;;;;;;6332555;22;20037;-52
2022/10/16 08:48:11;;;;;;;24.05;5.65;;;;;;;;;;6330255;22;20479;-61
2022/10/16 08:50:39;;;;;;;36.63;5.88;;;;;;;;;;6333303;22;20494;-60
2022/10/16 08:53:18;;;;;;;21.27;4.50;;;;;;;;;;6331050;22;20043;-48
2022/10/16 08:55:52;;;;;;;21.55;5.00;;;;;;;;;;6330116;22;20021;-52
2022/10/16 08:58:28;;;;;;;21.67;4.38;;;;;;;;;;6331695;22;20045;-46
2022/10/16 09:00:57;;;;;;;16.38;3.75;;;;;;;;;;6329689;22;20014;-52
2022/10/16 09:03:34;;;;;;;15.98;3.47;;;;;;;;;;6332540;22;20019;-47
2022/10/16 09:06:01;;;;;;;17.90;4.20;;;;;;;;;;6330070;22;20022;-50
2022/10/16 09:08:37;;;;;;;14.05;3.15;;;;;;;;;;6332104;22;20061;-65
2022/10/16 09:11:15;;;;;;;25.17;3.78;;;;;;;;;;6332512;22;20022;-47
2022/10/16 09:13:49;;;;;;;15.48;3.78;;;;;;;;;;6331544;22;20033;-50
2022/10/16 09:16:17;;;;;;;;;;;;;;;;;;6333485;22;20029;-50
2022/10/16 09:18:49;;;;;;;13.43;3.47;;;;;;;;;;6330397;22;19948;-51
2022/10/16 09:21:28;;;;;;;13.07;2.92;;;;;;;;;;6330025;22;20019;-50
2022/10/16 09:23:59;;;;;;;17.27;3.00;;;;;;;;;;6332575;22;20029;-51
2022/10/16 09:26:33;;;;;;;15.57;3.50;;;;;;;;;;6330808;22;20102;-47
2022/10/16 09:29:00;;;;;;;17.55;3.17;;;;;;;;;;6331322;22;20019;-50
2022/10/16 09:31:27;;;;;;;16.20;3.50;;;;;;;;;;6330612;22;20026;-60
2022/10/16 09:34:30;;;;;;;15.82;3.10;;;;;;;;;;6330586;22;20022;-58
2022/10/16 09:37:13;;;;;;;12.82;2.90;;;;;;;;;;6329043;22;20050;-59
2022/10/16 09:39:47;;;;;;;21.30;3.45;;;;;;;;;;6330154;22;20025;-60
2022/10/16 09:42:23;;;;;;;21.75;3.35;;;;;;;;;;6329728;22;20019;-60
2022/10/16 09:44:51;;;;;;;15.35;2.83;;;;;;;;;;6328484;22;20015;-59
2022/10/16 09:47:18;;;;;;;18.90;3.35;;;;;;;;;;6328391;22;20540;-60
2022/10/16 09:50:01;;;;;;;18.88;3.03;;;;;;;;;;6328188;22;20018;-60
2022/10/16 09:52:29;;;;;;;21.25;3.13;;;;;;;;;;6331239;22;20094;-60
2022/10/16 09:55:13;;;;;;;20.20;3.30;;;;;;;;;;6329547;22;20018;-60
2022/10/16 09:57:53;;;;;;;20.33;4.00;;;;;;;;;;6328829;22;20508;-60
2022/10/16 10:00:27;;;;;;;19.17;3.80;;;;;;;;;;6331269;22;20019;-60
2022/10/16 10:02:55;;;;;;;14.85;3.33;;;;;;;;;;6326464;22;20026;-60
2022/10/16 10:05:24;;;;;;;24.75;3.88;;;;;;;;;;6329340;22;20026;-59
2022/10/16 10:08:06;;;;;;;22.42;3.25;;;;;;;;;;6329949;22;20015;-52
2022/10/16 10:10:48;;;;;;;24.33;3.42;;;;;;;;;;6303021;22;20023;-50
2022/10/16 10:13:29;;;;;;;26.52;3.90;;;;;;;;;;6331730;22;20454;-49
2022/10/16 10:15:57;;;;;;;19.52;3.55;;;;;;;;;;6333231;22;20058;-52
2022/10/16 10:18:38;;;;;;;16.58;3.70;;;;;;;;;;6331562;22;20359;-50
2022/10/16 10:21:06;;;;;;;19.10;3.92;;;;;;;;;;6333747;22;20029;-53
2022/10/16 10:23:40;;;;;;;16.98;3.97;;;;;;;;;;6330425;22;20089;-61
2022/10/16 10:26:10;;;;;;;26.00;4.03;;;;;;;;;;6330975;22;20410;-61
2022/10/16 10:29:02;;;;;;;22.00;4.20;;;;;;;;;;6332568;22;20463;-61
2022/10/16 10:31:34;;;;;;;22.00;4.50;;;;;;;;;;6332245;22;20665;-63
2022/10/16 10:34:17;;;;;;;24.50;4.28;;;;;;;;;;6331300;22;20021;-62
2022/10/16 10:36:46;;;;;;;30.30;4.30;;;;;;;;;;6331783;22;20018;-62
2022/10/16 10:39:30;;;;;;;28.35;4.32;;;;;;;;;;6331644;22;20023;-62
2022/10/16 10:42:09;;;;;;;30.20;4.30;;;;;;;;;;6332574;22;20021;-62
2022/10/16 10:45:02;;;;;;;24.38;3.88;;;;;;;;;;6331100;22;20725;-53
2022/10/16 10:47:59;;;;;;;23.08;3.78;;;;;;;;;;6332197;22;20030;-61
2022/10/16 10:50:33;;;;;;;24.58;4.40;;;;;;;;;;6323098;22;20527;-61
2022/10/16 10:53:03;;;;;;;26.65;5.28;;;;;;;;;;6332630;22;20025;-61
2022/10/16 10:55:36;;;;;;;28.83;4.57;;;;;;;;;;6332836;22;20023;-62
2022/10/16 10:58:24;;;;;;;31.60;5.00;;;;;;;;;;6332982;22;20015;-61
2022/10/16 11:01:06;;;;;;;34.03;5.13;;;;;;;;;;6332228;22;20020;-61
2022/10/16 11:03:40;;;;;;;;;;;;;;;;;;6331841;22;20026;-60
2022/10/16 11:06:10;;;;;;;26.13;4.57;;;;;;;;;;6333610;22;19938;-59
2022/10/16 11:08:48;;;;;;;31.58;4.60;;;;;;;;;;6333257;22;20029;-60
2022/10/16 11:11:34;;;;;;;30.38;5.28;;;;;;;;;;6332822;22;20022;-59
2022/10/16 11:14:22;;;;;;;30.02;4.40;;;;;;;;;;6333309;22;20525;-59
2022/10/16 11:16:56;;;;;;;30.13;4.65;;;;;;;;;;6332367;22;20098;-59
2022/10/16 11:19:47;;;;;;;26.98;4.65;;;;;;;;;;6332597;22;20026;-60
2022/10/16 11:22:19;;;;;;;36.95;5.97;;;;;;;;;;6333305;22;20054;-60
2022/10/16 11:25:13;;;;;;;28.80;5.80;;;;;;;;;;6332655;22;20045;-62
2022/10/16 11:27:45;;;;;;;37.05;5.53;;;;;;;;;;6327986;22;20022;-65
2022/10/16 11:30:22;;;;;;;20.98;4.00;;;;;;;;;;6330252;22;20097;-63
2022/10/16 11:32:52;;;;;;;30.70;5.07;;;;;;;;;;6331142;22;20455;-63
2022/10/16 11:35:46;;;;;;;26.80;4.75;;;;;;;;;;6333752;22;20022;-63
2022/10/16 11:38:19;;;;;;;30.38;4.80;;;;;;;;;;6316618;22;20098;-62
2022/10/16 11:40:54;;;;;;;38.22;5.25;;;;;;;;;;6332226;22;20015;-58
2022/10/16 11:43:27;;;;;;;27.52;4.63;;;;;;;;;;6332830;22;20041;-62
2022/10/16 11:46:13;;;;;;;32.28;3.95;;;;;;;;;;6320669;22;20414;-61
2022/10/16 11:48:49;;;;;;;19.77;4.15;;;;;;;;;;6330761;22;20019;-61
2022/10/16 11:51:41;;;;;;;18.45;3.47;;;;;;;;;;6331804;22;20407;-61
2022/10/16 11:54:14;;;;;;;31.88;4.32;;;;;;;;;;6330801;22;20019;-62
2022/10/16 11:56:50;;;;;;;24.92;3.50;;;;;;;;;;6332110;22;20022;-62
2022/10/16 11:59:17;;;;;;;25.80;4.80;;;;;;;;;;6331330;22;20019;-61
2022/10/16 12:01:47;;;;;;;24.30;4.15;;;;;;;;;;6333328;22;20018;-61
2022/10/16 12:04:24;;;;;;;20.80;4.40;;;;;;;;;;6330515;22;20018;-61
2022/10/16 12:07:03;;;;;;;23.33;4.85;;;;;;;;;;6330530;22;20023;-61
2022/10/16 12:09:38;;;;;;;20.33;3.80;;;;;;;;;;6328077;22;20090;-61
2022/10/16 12:12:06;;;;;;;24.88;4.47;;;;;;;;;;6331498;22;20025;-61
2022/10/16 12:14:40;;;;;;;15.35;3.38;;;;;;;;;;6332342;22;20098;-61
2022/10/16 12:17:41;;;;;;;19.67;4.00;;;;;;;;;;6330043;22;20034;-51
2022/10/16 12:20:25;;;;;;;28.40;3.80;;;;;;;;;;6331751;22;20037;-60
2022/10/16 12:22:54;;;;;;;27.13;4.63;;;;;;;;;;6332614;22;20125;-61
2022/10/16 12:25:32;;;;;;;36.28;5.05;;;;;;;;;;6331290;22;20030;-61
2022/10/16 12:28:06;;;;;;;21.17;4.28;;;;;;;;;;6332819;22;20479;-61
2022/10/16 12:30:41;;;;;;;28.83;4.68;;;;;;;;;;6330336;22;20018;-62
2022/10/16 12:33:22;;;;;;;30.95;4.55;;;;;;;;;;6332432;22;20109;-61
2022/10/16 12:35:57;;;;;;;18.77;2.80;;;;;;;;;;6333270;22;20265;-61
2022/10/16 12:38:43;;;;;;;12.82;2.25;;;;;;;;;;6332317;22;20019;-61
2022/10/16 12:41:30;;;;;;;14.40;2.20;;;;;;;;;;6331102;22;20015;-61
2022/10/16 12:43:58;;;;;;;9.48;2.35;;;;;;;;;;6332807;22;20494;-61
2022/10/16 12:46:32;;;;;;;14.10;2.25;;;;;;;;;;6331943;22;20024;-61
2022/10/16 12:49:12;;;;;;;13.10;2.28;;;;;;;;;;6332373;22;20068;-63
2022/10/16 12:51:46;;;;;;;13.77;2.00;;;;;;;;;;6330836;22;20022;-61
2022/10/16 12:54:15;;;;;;;17.02;2.40;;;;;;;;;;6330830;22;20023;-61
2022/10/16 12:56:43;;;;;;;14.73;2.20;;;;;;;;;;6331243;22;20677;-62
2022/10/16 12:59:23;;;;;;;12.40;2.40;;;;;;;;;;6328650;22;20023;-58
2022/10/16 13:02:09;;;;;;;10.88;2.03;;;;;;;;;;6329463;22;20478;-58
2022/10/16 13:05:01;;;;;;;19.95;2.47;;;;;;;;;;6329772;22;20652;-58
2022/10/16 13:07:41;;;;;;;11.45;2.15;;;;;;;;;;6329218;22;20415;-58
2022/10/16 13:10:33;;;;;;;13.85;2.40;;;;;;;;;;6324807;22;20026;-58
2022/10/16 13:13:04;;;;;;;20.60;2.05;;;;;;;;;;6332269;22;20097;-57
2022/10/16 13:15:38;;;;;;;16.05;2.53;;;;;;;;;;6331532;22;20090;-60
2022/10/16 13:18:23;;;;;;;16.40;2.78;;;;;;;;;;6329498;22;20019;-49
2022/10/16 13:21:18;;;;;;;19.40;2.47;;;;;;;;;;6331085;22;20110;-59
2022/10/16 13:23:45;;;;;;;14.17;3.10;;;;;;;;;;6330326;22;20439;-59
2022/10/16 13:26:29;;;;;;;12.80;2.40;;;;;;;;;;6329493;22;20098;-59
2022/10/16 13:29:00;;;;;;;18.02;2.95;;;;;;;;;;6331568;22;20023;-59
2022/10/16 13:31:34;;;;;;;18.58;2.75;;;;;;;;;;6332280;22;20025;-59
2022/10/16 13:34:01;;;;;;;18.52;2.58;;;;;;;;;;6330230;22;20543;-61
2022/10/16 13:36:35;;;;;;;20.10;2.70;;;;;;;;;;6329441;22;20023;-61
2022/10/16 13:39:13;;;;;;;24.13;3.17;;;;;;;;;;6330586;22;20018;-61
2022/10/16 13:41:41;;;;;;;22.27;2.60;;;;;;;;;;6331404;22;20029;-61
2022/10/16 13:44:13;;;;;;;23.75;3.53;;;;;;;;;;6330893;22;20022;-61
2022/10/16 13:46:47;;;;;;;22.75;3.38;;;;;;;;;;6330206;22;20539;-61
2022/10/16 13:49:15;;;;;;;21.20;3.13;;;;;;;;;;6332651;22;20387;-60
2022/10/16 13:51:53;;;;;;;24.33;3.35;;;;;;;;;;6332345;22;20027;-60
2022/10/16 13:54:30;;;;;;;26.60;3.38;;;;;;;;;;6334104;22;20014;-63
2022/10/16 13:57:07;;;;;;;29.27;4.45;;;;;;;;;;6334319;22;20089;-60
2022/10/16 13:59:52;;;;;;;;;;;;;;;;;;6333957;22;20532;-60
2022/10/16 14:02:34;;;;;;;28.88;3.95;;;;;;;;;;6330535;22;19921;-61
2022/10/16 14:05:03;;;;;;;27.75;3.60;;;;;;;;;;6330698;22;20057;-61
2022/10/16 14:07:37;;;;;;;29.45;3.38;;;;;;;;;;6330596;22;20466;-61
2022/10/16 14:10:06;;;;;;;21.88;3.70;;;;;;;;;;6330546;22;20401;-60
2022/10/16 14:12:40;;;;;;;19.48;3.45;;;;;;;;;;6329834;22;20122;-58
2022/10/16 14:15:16;;;;;;;18.60;3.47;;;;;;;;;;6327308;22;20027;-59
2022/10/16 14:17:58;;;;;;;23.27;3.60;;;;;;;;;;6330435;22;20023;-47
2022/10/16 14:20:39;;;;;;;20.85;3.17;;;;;;;;;;6292758;22;20045;-49
2022/10/16 14:23:26;;;;;;;27.17;4.35;;;;;;;;;;6295398;22;20034;-50
2022/10/16 14:25:53;;;;;;;32.10;4.05;;;;;;;;;;6294908;22;20434;-48
2022/10/16 14:28:27;;;;;;;30.60;4.90;;;;;;;;;;6292176;22;20466;-48
2022/10/16 14:30:59;;;;;;;32.63;4.05;;;;;;;;;;6296446;22;20015;-59
2022/10/16 14:33:34;;;;;;;38.80;4.45;;;;;;;;;;6297222;22;20023;-63
2022/10/16 14:36:21;;;;;;;26.65;3.88;;;;;;;;;;6299323;22;20103;-58
2022/10/16 14:39:03;;;;;;;39.53;4.78;;;;;;;;;;6301093;22;20662;-59
2022/10/16 14:41:31;;;;;;;27.45;4.60;;;;;;;;;;6301897;22;20090;-58
2022/10/16 14:44:05;;;;;;;36.95;4.35;;;;;;;;;;6300143;22;20027;-58
2022/10/16 14:46:35;;;;;;;32.97;5.13;;;;;;;;;;6301504;22;20023;-57
2022/10/16 14:49:09;;;;;;;36.00;4.53;;;;;;;;;;6300675;22;20758;-58
2022/10/16 14:51:37;;;;;;;36.58;5.95;;;;;;;;;;6301190;22;20114;-63
2022/10/16 14:54:11;;;;;;;35.00;4.95;;;;;;;;;;6300139;22;20546;-64
2022/10/16 14:56:44;;;;;;;27.08;4.85;;;;;;;;;;6301804;22;20029;-63
2022/10/16 14:59:19;;;;;;;34.35;5.90;;;;;;;;;;6301490;22;20110;-64
2022/10/16 15:01:47;;;;;;;31.23;5.65;;;;;;;;;;6299700;22;20099;-64
2022/10/16 15:04:15;;;;;;;30.23;4.88;;;;;;;;;;6300633;22;20027;-64